Time;durP1;ratioP1;P1;durP2;ratioP2;P2;SDS_P1;SDS_P2;PMS_P1;PMS_P2;Temp;Humidity;BMP_temperature;BMP_pressure;BME280_temperature;BME280_humidity;BME280_pressure;Samples;Min_cycle;Max_cycle;Signal;HPM_P1;HPM_P2
2023/02/10 00:00:12;;;;;;;39.50;18.03;;;14.80;45.70;;;;;;4993045;28;20449;-77
2023/02/10 00:02:40;;;;;;;37.47;17.57;;;14.80;45.70;;;;;;4989736;28;20473;-77
2023/02/10 00:05:08;;;;;;;41.60;18.30;;;14.70;45.80;;;;;;4990662;28;20472;-78
2023/02/10 00:07:38;;;;;;;39.10;18.07;;;14.70;45.80;;;;;;4993463;28;20484;-78
2023/02/10 00:10:06;;;;;;;39.73;18.80;;;14.70;45.90;;;;;;4991270;28;20940;-77
2023/02/10 00:12:36;;;;;;;35.80;17.70;;;14.70;45.90;;;;;;4992350;28;20486;-77
2023/02/10 00:15:05;;;;;;;36.13;17.03;;;14.70;46.00;;;;;;4992600;28;20444;-77
2023/02/10 00:17:33;;;;;;;34.03;16.97;;;14.60;45.90;;;;;;4991828;28;20446;-77
2023/02/10 00:20:01;;;;;;;36.33;16.57;;;14.60;46.00;;;;;;4987981;28;20461;-78
2023/02/10 00:22:29;;;;;;;34.10;16.70;;;14.60;46.00;;;;;;4992188;28;20481;-77
2023/02/10 00:24:58;;;;;;;36.30;17.40;;;14.60;46.00;;;;;;4997111;28;20460;-78
2023/02/10 00:27:26;;;;;;;31.43;15.90;;;14.60;46.00;;;;;;4992157;28;20465;-77
2023/02/10 00:29:54;;;;;;;34.13;17.67;;;14.50;45.90;;;;;;4999668;28;20454;-77
2023/02/10 00:32:22;;;;;;;35.67;15.50;;;14.50;46.00;;;;;;4992725;28;20465;-77
2023/02/10 00:34:50;;;;;;;44.20;17.30;;;14.60;46.10;;;;;;4986422;28;20454;-77
2023/02/10 00:37:18;;;;;;;31.33;15.93;;;14.60;46.20;;;;;;4986842;28;20457;-77
2023/02/10 00:39:46;;;;;;;32.20;16.17;;;14.60;46.30;;;;;;4991229;28;20473;-77
2023/02/10 00:42:16;;;;;;;38.77;16.73;;;14.60;46.20;;;;;;4988454;28;20488;-78
2023/02/10 00:44:45;;;;;;;33.03;17.03;;;14.50;46.10;;;;;;4989605;28;20468;-77
2023/02/10 00:47:13;;;;;;;34.13;16.60;;;14.50;46.10;;;;;;4993182;28;20454;-77
2023/02/10 00:49:41;;;;;;;32.00;15.43;;;14.50;46.20;;;;;;4995260;28;20471;-77
2023/02/10 00:52:09;;;;;;;33.17;16.03;;;14.50;46.20;;;;;;4986702;28;20487;-77
2023/02/10 00:54:37;;;;;;;31.30;15.50;;;14.50;46.30;;;;;;4992760;28;20460;-77
2023/02/10 00:57:06;;;;;;;29.07;15.40;;;14.50;46.40;;;;;;4988600;28;20481;-77
2023/02/10 00:59:35;;;;;;;30.53;15.23;;;14.50;46.30;;;;;;4988344;28;20481;-77
2023/02/10 01:02:03;;;;;;;27.27;14.90;;;14.40;46.30;;;;;;4988703;28;20480;-77
2023/02/10 01:04:31;;;;;;;30.80;15.07;;;14.40;46.40;;;;;;4987830;28;20457;-77
2023/02/10 01:06:59;;;;;;;33.20;15.30;;;14.40;46.30;;;;;;4990597;28;20452;-77
2023/02/10 01:09:27;;;;;;;28.10;14.47;;;14.40;46.40;;;;;;4991060;28;20460;-77
2023/02/10 01:11:55;;;;;;;31.87;13.90;;;14.40;46.30;;;;;;4986097;28;20483;-78
2023/02/10 01:14:23;;;;;;;27.73;14.50;;;14.40;46.40;;;;;;4988906;28;20482;-77
2023/02/10 01:16:52;;;;;;;27.50;14.00;;;14.40;46.50;;;;;;4989916;28;20456;-77
2023/02/10 01:19:20;;;;;;;28.10;14.10;;;14.30;46.40;;;;;;4987033;28;20476;-77
2023/02/10 01:21:48;;;;;;;26.57;14.03;;;14.30;46.40;;;;;;4988389;28;20503;-77
2023/02/10 01:24:16;;;;;;;29.27;14.03;;;14.30;46.50;;;;;;4984730;28;20469;-77
2023/02/10 01:26:44;;;;;;;28.40;14.20;;;14.30;46.60;;;;;;4984294;28;20473;-77
2023/02/10 01:29:13;;;;;;;28.40;14.40;;;14.30;46.60;;;;;;4990099;28;20457;-77
2023/02/10 01:31:40;;;;;;;27.33;13.40;;;14.30;46.70;;;;;;4994531;28;20475;-77
2023/02/10 01:34:11;;;;;;;24.47;13.07;;;14.30;46.70;;;;;;4992195;28;20496;-77
2023/02/10 01:36:39;;;;;;;29.60;13.57;;;14.20;46.50;;;;;;4991512;28;20456;-77
2023/02/10 01:39:08;;;;;;;28.97;14.13;;;14.20;46.50;;;;;;4991685;28;20535;-77
2023/02/10 01:41:36;;;;;;;28.17;13.03;;;14.20;46.60;;;;;;4988542;28;20480;-76
2023/02/10 01:44:04;;;;;;;27.87;13.77;;;14.20;46.60;;;;;;4986530;28;20468;-77
2023/02/10 01:46:33;;;;;;;26.30;14.13;;;14.20;46.60;;;;;;4991951;28;20464;-77
2023/02/10 01:49:02;;;;;;;45.60;22.40;;;14.20;46.70;;;;;;4987808;28;20454;-77
2023/02/10 01:51:37;;;;;;;34.93;18.40;;;14.20;46.70;;;;;;4994970;28;20530;-77
2023/02/10 01:54:05;;;;;;;37.50;18.10;;;14.10;46.70;;;;;;4998196;28;20459;-77
2023/02/10 01:56:34;;;;;;;33.03;16.40;;;14.10;46.60;;;;;;4993588;28;20488;-77
2023/02/10 01:59:02;;;;;;;30.53;15.97;;;14.10;46.70;;;;;;4984088;28;20477;-77
2023/02/10 02:01:30;;;;;;;29.03;16.03;;;14.10;46.80;;;;;;4987370;28;20495;-76
2023/02/10 02:04:00;;;;;;;34.40;15.80;;;14.00;46.80;;;;;;4987256;28;20485;-77
2023/02/10 02:06:28;;;;;;;31.87;16.50;;;14.10;46.90;;;;;;4991463;28;20453;-77
2023/02/10 02:08:57;;;;;;;33.40;15.70;;;14.10;46.80;;;;;;4998780;28;20471;-77
2023/02/10 02:11:27;;;;;;;29.00;15.10;;;14.10;46.80;;;;;;4989138;28;20470;-77
2023/02/10 02:14:09;;;;;;;28.70;15.40;;;14.00;46.80;;;;;;4988481;28;20449;-77
2023/02/10 02:16:49;;;;;;;31.00;15.47;;;14.00;46.80;;;;;;4989503;28;20532;-77
2023/02/10 02:19:49;;;;;;;31.40;15.90;;;14.00;46.80;;;;;;4990837;28;20472;-77
2023/02/10 02:22:35;;;;;;;28.20;14.57;;;14.00;46.90;;;;;;4994172;28;21023;-77
2023/02/10 02:25:10;;;;;;;26.57;14.00;;;14.00;47.00;;;;;;4992673;28;20460;-77
2023/02/10 02:28:15;;;;;;;30.13;14.73;;;14.00;47.00;;;;;;4988820;28;20506;-78
2023/02/10 02:31:06;;;;;;;29.33;14.93;;;14.00;47.00;;;;;;4993988;28;20448;-78
2023/02/10 02:33:37;;;;;;;26.73;13.20;;;14.00;47.00;;;;;;4982219;28;20491;-77
2023/02/10 02:36:07;;;;;;;25.10;13.77;;;14.00;47.10;;;;;;4996127;28;20455;-77
2023/02/10 02:38:38;;;;;;;27.07;14.07;;;13.90;47.00;;;;;;4994838;28;20449;-77
2023/02/10 02:41:06;;;;;;;25.13;13.20;;;14.00;47.10;;;;;;4991438;28;20496;-77
2023/02/10 02:43:34;;;;;;;27.40;13.03;;;13.90;47.10;;;;;;4993355;28;20449;-77
2023/02/10 02:46:04;;;;;;;23.90;12.87;;;13.90;47.10;;;;;;4992792;28;20452;-77
2023/02/10 02:48:41;;;;;;;22.07;12.77;;;13.90;47.10;;;;;;4993566;28;20456;-77
2023/02/10 02:51:12;;;;;;;25.87;13.37;;;13.90;47.10;;;;;;4987974;28;20449;-77
2023/02/10 02:53:42;;;;;;;26.83;13.73;;;13.90;47.10;;;;;;4996602;28;20461;-77
2023/02/10 02:56:15;;;;;;;22.43;12.00;;;13.90;47.20;;;;;;4995063;28;20469;-77
2023/02/10 02:58:47;;;;;;;26.20;13.37;;;13.90;47.20;;;;;;5000764;28;20527;-77
2023/02/10 03:01:16;;;;;;;22.50;11.97;;;13.90;47.20;;;;;;4998580;28;20472;-76
2023/02/10 03:03:45;;;;;;;22.10;12.67;;;13.80;47.20;;;;;;4998372;28;20461;-77
2023/02/10 03:06:13;;;;;;;26.23;12.97;;;13.90;47.30;;;;;;5001145;28;20457;-77
2023/02/10 03:08:41;;;;;;;22.40;12.70;;;13.80;47.30;;;;;;4999192;28;20467;-76
2023/02/10 03:11:10;;;;;;;21.37;12.30;;;13.80;47.30;;;;;;4999638;28;20596;-78
2023/02/10 03:13:37;;;;;;;23.93;12.27;;;13.80;47.30;;;;;;4994322;28;20461;-77
2023/02/10 03:16:06;;;;;;;24.63;12.20;;;13.80;47.30;;;;;;5000388;28;20483;-77
2023/02/10 03:18:34;;;;;;;23.37;11.90;;;13.80;47.20;;;;;;4995487;28;20464;-77
2023/02/10 03:21:04;;;;;;;21.20;12.20;;;13.80;47.30;;;;;;4994354;28;20488;-77
2023/02/10 03:23:32;;;;;;;23.30;11.70;;;13.80;47.30;;;;;;4992824;28;20453;-77
2023/02/10 03:26:00;;;;;;;19.80;11.07;;;13.80;47.40;;;;;;5005283;28;20472;-79
2023/02/10 03:28:28;;;;;;;21.70;11.57;;;13.70;47.30;;;;;;4995466;28;20457;-78
2023/02/10 03:30:56;;;;;;;19.97;11.43;;;13.70;47.30;;;;;;4999090;28;20445;-77
2023/02/10 03:33:24;;;;;;;20.00;11.23;;;13.80;47.40;;;;;;4992796;28;20570;-78
2023/02/10 03:35:52;;;;;;;23.57;12.50;;;13.80;47.40;;;;;;4989151;28;20449;-76
2023/02/10 03:38:24;;;;;;;20.73;11.23;;;13.70;47.30;;;;;;4996859;28;20649;-76
2023/02/10 03:40:53;;;;;;;20.07;10.43;;;13.70;47.40;;;;;;4988726;28;20886;-77
2023/02/10 03:43:21;;;;;;;16.90;9.60;;;13.70;47.30;;;;;;4995733;28;20470;-77
2023/02/10 03:45:49;;;;;;;19.23;10.67;;;13.70;47.40;;;;;;4996814;28;20453;-77
2023/02/10 03:48:17;;;;;;;16.37;9.50;;;13.70;47.40;;;;;;4996078;28;20529;-77
2023/02/10 03:50:45;;;;;;;19.33;11.57;;;13.70;47.40;;;;;;4993731;28;20473;-77
2023/02/10 03:53:13;;;;;;;19.10;9.73;;;13.70;47.50;;;;;;4993993;28;20473;-77
2023/02/10 03:55:42;;;;;;;18.33;9.53;;;13.70;47.40;;;;;;4991735;28;20499;-77
2023/02/10 03:58:10;;;;;;;17.37;9.93;;;13.70;47.40;;;;;;4986177;28;20453;-76
2023/02/10 04:00:38;;;;;;;16.93;10.33;;;13.70;47.50;;;;;;4991855;28;20473;-77
2023/02/10 04:03:06;;;;;;;19.93;10.27;;;13.70;47.50;;;;;;4992205;28;20473;-77
2023/02/10 04:05:34;;;;;;;19.27;10.17;;;13.60;47.40;;;;;;4992310;28;20457;-77
2023/02/10 04:08:02;;;;;;;14.60;8.77;;;13.60;47.50;;;;;;4991437;28;20454;-77
2023/02/10 04:10:30;;;;;;;17.83;9.40;;;13.60;47.60;;;;;;4990189;28;20457;-76
2023/02/10 04:12:59;;;;;;;18.13;10.33;;;13.60;47.60;;;;;;4990975;28;20480;-77
2023/02/10 04:15:27;;;;;;;15.87;9.10;;;13.60;47.60;;;;;;4988393;28;20457;-76
2023/02/10 04:17:56;;;;;;;20.40;10.23;;;13.60;47.60;;;;;;4988674;28;20465;-77
2023/02/10 04:20:24;;;;;;;16.50;10.20;;;13.60;47.50;;;;;;4990815;28;20500;-77
2023/02/10 04:22:52;;;;;;;16.97;9.57;;;13.60;47.60;;;;;;4991006;28;20489;-77
2023/02/10 04:25:20;;;;;;;17.97;9.30;;;13.60;47.60;;;;;;4991690;28;20445;-77
2023/02/10 04:27:48;;;;;;;14.90;8.17;;;13.60;47.60;;;;;;4992109;28;20445;-77
2023/02/10 04:30:17;;;;;;;16.13;9.30;;;13.50;47.60;;;;;;4988473;28;20441;-76
2023/02/10 04:32:45;;;;;;;14.27;8.70;;;13.60;47.60;;;;;;4983437;28;20478;-76
2023/02/10 04:35:13;;;;;;;12.17;8.13;;;13.50;47.60;;;;;;4990810;28;20464;-77
2023/02/10 04:37:41;;;;;;;14.40;8.80;;;13.50;47.60;;;;;;5003241;28;20468;-76
2023/02/10 04:40:09;;;;;;;16.63;8.90;;;13.50;47.60;;;;;;5008779;28;20453;-78
2023/02/10 04:42:38;;;;;;;16.80;9.00;;;13.50;47.70;;;;;;5005505;28;20473;-77
2023/02/10 04:45:07;;;;;;;19.10;9.00;;;13.50;47.70;;;;;;5004771;28;20466;-77
2023/02/10 04:47:36;;;;;;;18.33;8.50;;;13.50;47.70;;;;;;5004132;28;20450;-76
2023/02/10 04:50:05;;;;;;;15.43;8.73;;;13.50;47.70;;;;;;5003991;28;20457;-77
2023/02/10 04:52:33;;;;;;;15.30;9.00;;;13.50;47.80;;;;;;5004082;28;20473;-76
2023/02/10 04:55:01;;;;;;;16.33;8.80;;;13.50;47.70;;;;;;5005583;28;20458;-77
2023/02/10 04:57:28;;;;;;;14.60;8.10;;;13.50;47.90;;;;;;4990175;28;20488;-77
2023/02/10 04:59:56;;;;;;;13.30;8.90;;;13.40;47.80;;;;;;4992695;28;20479;-77
2023/02/10 05:02:24;;;;;;;14.30;8.83;;;13.40;47.80;;;;;;4990889;28;20488;-76
2023/02/10 05:04:53;;;;;;;12.90;7.80;;;13.40;47.70;;;;;;4991677;28;20467;-77
2023/02/10 05:07:21;;;;;;;14.10;8.13;;;13.40;47.90;;;;;;4984447;28;20461;-77
2023/02/10 05:09:50;;;;;;;11.60;7.80;;;13.40;47.90;;;;;;4992590;28;20453;-78
2023/02/10 05:12:18;;;;;;;12.23;7.60;;;13.40;47.80;;;;;;4988776;28;20469;-77
2023/02/10 05:14:45;;;;;;;13.60;7.70;;;13.40;47.90;;;;;;4988709;28;20520;-77
2023/02/10 05:17:13;;;;;;;14.17;7.47;;;13.40;47.90;;;;;;4989025;28;20476;-77
2023/02/10 05:19:41;;;;;;;12.37;7.47;;;13.40;47.90;;;;;;4990588;28;20461;-77
2023/02/10 05:22:11;;;;;;;14.80;7.47;;;13.40;48.00;;;;;;4989855;28;20477;-78
2023/02/10 05:24:39;;;;;;;15.80;7.87;;;13.40;47.90;;;;;;4990526;28;20461;-78
2023/02/10 05:27:07;;;;;;;14.37;7.40;;;13.30;47.90;;;;;;4988064;28;20583;-78
2023/02/10 05:29:35;;;;;;;11.10;6.57;;;13.30;48.00;;;;;;4987249;28;20460;-78
2023/02/10 05:32:02;;;;;;;12.90;7.60;;;13.40;48.00;;;;;;4990610;28;20475;-78
2023/02/10 05:34:30;;;;;;;14.70;7.63;;;13.30;47.90;;;;;;4989473;28;20465;-78
2023/02/10 05:36:59;;;;;;;11.70;6.87;;;13.30;48.00;;;;;;4989403;28;20465;-78
2023/02/10 05:39:28;;;;;;;11.60;7.20;;;13.30;48.00;;;;;;4987392;28;20465;-76
2023/02/10 05:41:57;;;;;;;11.37;7.20;;;13.30;47.90;;;;;;4990808;28;20469;-78
2023/02/10 05:44:25;;;;;;;12.50;7.20;;;13.30;48.00;;;;;;4989814;28;20460;-78
2023/02/10 05:46:53;;;;;;;12.33;7.37;;;13.30;48.10;;;;;;4986978;28;20473;-78
2023/02/10 05:49:20;;;;;;;12.67;7.37;;;13.30;48.20;;;;;;4988205;28;20453;-78
2023/02/10 05:51:48;;;;;;;13.53;7.50;;;13.30;48.10;;;;;;4983774;28;20464;-78
2023/02/10 05:54:19;;;;;;;12.07;7.03;;;13.30;48.00;;;;;;4990594;28;20449;-78
2023/02/10 05:56:49;;;;;;;12.30;7.50;;;13.30;48.10;;;;;;4989357;28;20479;-78
2023/02/10 05:59:17;;;;;;;11.97;7.07;;;13.30;48.10;;;;;;4988983;28;20461;-78
2023/02/10 06:01:45;;;;;;;15.80;8.07;;;13.30;48.20;;;;;;4984855;28;20481;-78
2023/02/10 06:04:14;;;;;;;14.80;7.30;;;13.30;48.20;;;;;;4986597;28;20914;-77
2023/02/10 06:06:42;;;;;;;11.30;7.07;;;13.20;48.10;;;;;;4989116;28;20449;-78
2023/02/10 06:09:10;;;;;;;11.10;6.90;;;13.20;48.20;;;;;;4986603;28;20457;-77
2023/02/10 06:11:38;;;;;;;13.10;7.00;;;13.20;48.20;;;;;;4988654;28;20568;-77
2023/02/10 06:14:07;;;;;;;10.03;6.93;;;13.20;48.10;;;;;;4986692;28;20462;-78
2023/02/10 06:16:35;;;;;;;10.50;6.63;;;13.20;48.20;;;;;;4988849;28;20452;-78
2023/02/10 06:19:03;;;;;;;12.13;6.77;;;13.20;48.30;;;;;;4993257;28;20461;-78
2023/02/10 06:21:31;;;;;;;12.30;6.93;;;13.20;48.20;;;;;;4987588;28;20496;-78
2023/02/10 06:23:59;;;;;;;11.50;6.83;;;13.20;48.30;;;;;;4992008;28;20459;-78
2023/02/10 06:26:27;;;;;;;11.80;6.93;;;13.20;48.20;;;;;;4984906;28;20477;-77
2023/02/10 06:28:55;;;;;;;7.60;6.07;;;13.20;48.30;;;;;;4986225;28;20539;-78
2023/02/10 06:31:25;;;;;;;10.53;6.40;;;13.20;48.10;;;;;;4988746;28;20469;-78
2023/02/10 06:33:54;;;;;;;9.93;6.63;;;13.20;48.30;;;;;;4987482;28;20552;-78
2023/02/10 06:36:22;;;;;;;11.57;6.50;;;13.10;48.20;;;;;;4990230;28;20457;-78
2023/02/10 06:38:50;;;;;;;10.00;6.23;;;13.20;48.30;;;;;;4984622;28;21001;-78
2023/02/10 06:41:18;;;;;;;9.53;6.20;;;13.10;48.30;;;;;;4986737;28;20504;-78
2023/02/10 06:43:47;;;;;;;10.13;6.07;;;13.20;48.40;;;;;;4989165;28;20457;-76
2023/02/10 06:46:15;;;;;;;9.87;6.13;;;13.10;48.30;;;;;;4989061;28;20457;-76
2023/02/10 06:48:45;;;;;;;9.83;5.73;;;13.10;48.30;;;;;;4987669;28;20453;-77
2023/02/10 06:51:13;;;;;;;11.60;6.50;;;13.10;48.40;;;;;;4986406;28;20465;-79
2023/02/10 06:53:42;;;;;;;9.03;6.23;;;13.10;48.30;;;;;;4989436;28;20484;-77
2023/02/10 06:56:10;;;;;;;8.73;6.17;;;13.10;48.40;;;;;;4981235;28;20465;-78
2023/02/10 06:58:38;;;;;;;8.77;6.00;;;13.10;48.50;;;;;;4983977;28;20470;-78
2023/02/10 07:01:08;;;;;;;10.70;6.10;;;13.10;48.40;;;;;;4985676;28;20541;-77
2023/02/10 07:03:36;;;;;;;8.17;5.83;;;13.10;48.40;;;;;;4990310;28;20483;-78
2023/02/10 07:06:06;;;;;;;9.00;6.03;;;13.10;48.50;;;;;;4991418;28;20452;-77
2023/02/10 07:08:34;;;;;;;10.63;6.70;;;13.10;48.40;;;;;;4994440;28;20468;-78
2023/02/10 07:11:02;;;;;;;9.67;6.10;;;13.10;48.40;;;;;;4995001;28;20500;-77
2023/02/10 07:13:30;;;;;;;13.40;6.83;;;13.10;48.40;;;;;;4990325;28;20455;-78
2023/02/10 07:15:58;;;;;;;10.63;6.60;;;13.10;48.50;;;;;;4992322;28;20460;-78
2023/02/10 07:18:27;;;;;;;12.70;6.30;;;13.10;48.40;;;;;;4992230;28;20457;-78
2023/02/10 07:20:55;;;;;;;9.00;6.13;;;13.10;48.50;;;;;;4994364;28;20457;-78
2023/02/10 07:23:25;;;;;;;13.63;6.57;;;13.10;48.40;;;;;;4993122;28;20484;-78
2023/02/10 07:26:04;;;;;;;9.63;5.80;;;13.10;48.40;;;;;;4994205;28;20480;-78
2023/02/10 07:28:33;;;;;;;9.37;5.97;;;13.00;48.40;;;;;;4992642;28;20508;-78
2023/02/10 07:31:01;;;;;;;10.60;5.67;;;13.00;48.50;;;;;;4987720;28;20451;-77
2023/02/10 07:33:29;;;;;;;13.80;6.33;;;13.10;48.50;;;;;;4993618;28;20536;-78
2023/02/10 07:36:00;;;;;;;13.07;6.20;;;13.10;48.50;;;;;;4993818;28;20449;-79
2023/02/10 07:38:29;;;;;;;12.17;6.07;;;13.10;48.50;;;;;;4991007;28;20454;-79
2023/02/10 07:40:57;;;;;;;10.67;6.20;;;13.10;48.50;;;;;;4997386;28;20485;-78
2023/02/10 07:43:25;;;;;;;9.40;5.80;;;13.10;48.40;;;;;;5004140;28;20484;-76
2023/02/10 07:45:53;;;;;;;9.27;5.77;;;13.10;48.40;;;;;;5000465;28;20461;-77
2023/02/10 07:48:21;;;;;;;11.77;5.90;;;13.10;48.50;;;;;;4994792;28;20475;-78
2023/02/10 07:50:51;;;;;;;9.77;5.67;;;13.20;48.50;;;;;;4999164;28;20461;-78
2023/02/10 07:53:19;;;;;;;9.50;6.00;;;13.10;48.50;;;;;;4997835;28;20469;-78
2023/02/10 07:55:49;;;;;;;7.07;5.03;;;13.20;48.60;;;;;;4999720;28;20476;-78
2023/02/10 07:58:17;;;;;;;9.20;5.60;;;13.20;48.50;;;;;;4995785;28;20460;-78
2023/02/10 08:00:45;;;;;;;10.70;5.70;;;13.20;48.60;;;;;;4988842;28;20457;-78
2023/02/10 08:03:16;;;;;;;9.70;6.30;;;13.20;48.40;;;;;;4991558;28;20477;-78
2023/02/10 08:05:47;;;;;;;12.30;6.00;;;13.30;48.60;;;;;;4989211;28;20457;-78
2023/02/10 08:08:16;;;;;;;10.50;5.90;;;13.30;48.60;;;;;;4993381;28;20460;-79
2023/02/10 08:10:44;;;;;;;13.20;5.80;;;13.30;48.50;;;;;;4993163;28;20473;-79
2023/02/10 08:13:14;;;;;;;8.93;5.33;;;13.40;48.60;;;;;;4994170;28;20468;-77
2023/02/10 08:15:42;;;;;;;9.00;5.43;;;13.40;48.60;;;;;;4993940;28;20462;-76
2023/02/10 08:18:10;;;;;;;11.03;5.60;;;13.50;48.50;;;;;;4995427;28;20957;-77
2023/02/10 08:20:40;;;;;;;9.90;5.67;;;13.50;48.60;;;;;;4994416;28;20469;-77
2023/02/10 08:23:08;;;;;;;8.53;4.83;;;13.50;48.50;;;;;;4983716;28;20566;-78
2023/02/10 08:25:36;;;;;;;10.17;5.40;;;13.50;48.50;;;;;;4981245;28;20481;-77
2023/02/10 08:28:04;;;;;;;8.90;5.17;;;13.60;48.60;;;;;;4982061;28;20457;-77
2023/02/10 08:30:34;;;;;;;8.43;5.80;;;13.60;48.50;;;;;;4989048;28;20516;-78
2023/02/10 08:33:03;;;;;;;8.27;5.20;;;13.70;48.60;;;;;;4990355;28;20488;-78
2023/02/10 08:35:31;;;;;;;8.83;5.30;;;13.70;48.60;;;;;;4986312;28;20545;-78
2023/02/10 08:37:59;;;;;;;8.00;5.40;;;13.80;48.60;;;;;;4982271;28;20452;-78
2023/02/10 08:40:27;;;;;;;8.60;5.30;;;13.90;48.70;;;;;;4979159;28;20838;-78
2023/02/10 08:42:55;;;;;;;9.23;5.37;;;13.90;48.60;;;;;;4984991;28;20477;-77
2023/02/10 08:45:24;;;;;;;9.83;5.73;;;14.00;48.50;;;;;;4977493;28;20454;-77
2023/02/10 08:47:57;;;;;;;8.20;5.40;;;14.10;48.60;;;;;;4980984;28;20453;-77
2023/02/10 08:50:25;;;;;;;9.17;5.83;;;14.20;48.50;;;;;;4980384;28;20457;-77
2023/02/10 08:52:56;;;;;;;9.50;5.23;;;14.30;48.80;;;;;;4989369;28;20571;-76
2023/02/10 08:55:24;;;;;;;10.90;5.50;;;14.40;48.60;;;;;;4994264;28;20496;-77
2023/02/10 08:57:52;;;;;;;11.80;5.67;;;14.50;48.80;;;;;;4989463;28;20490;-78
2023/02/10 09:00:20;;;;;;;6.40;5.00;;;14.50;48.60;;;;;;4999369;28;20446;-78
2023/02/10 09:02:49;;;;;;;9.30;6.07;;;14.70;48.80;;;;;;4995430;28;20582;-78
2023/02/10 09:05:19;;;;;;;7.70;5.27;;;14.80;48.80;;;;;;5004347;28;20496;-79
2023/02/10 09:07:53;;;;;;;8.93;4.60;;;14.90;48.90;;;;;;4995682;28;20519;-78
2023/02/10 09:10:21;;;;;;;8.67;5.20;;;15.00;48.90;;;;;;5001532;28;20455;-78
2023/02/10 09:12:49;;;;;;;8.13;5.30;;;15.20;49.00;;;;;;4995448;28;20480;-78
2023/02/10 09:15:19;;;;;;;8.80;4.87;;;15.40;49.10;;;;;;4990038;28;20461;-78
2023/02/10 09:17:47;;;;;;;11.27;5.40;;;15.50;49.00;;;;;;4989924;28;20495;-76
2023/02/10 09:20:15;;;;;;;10.70;5.30;;;15.70;49.10;;;;;;4998911;28;20449;-75
2023/02/10 09:22:47;;;;;;;7.30;5.33;;;15.90;48.90;;;;;;4998731;28;20477;-77
2023/02/10 09:25:15;;;;;;;7.80;5.30;;;15.90;48.60;;;;;;4990207;28;20460;-77
2023/02/10 09:27:43;;;;;;;5.70;4.60;;;16.00;48.70;;;;;;4990171;28;20481;-76
2023/02/10 09:30:12;;;;;;;8.93;5.90;;;16.20;48.80;;;;;;4993944;28;20552;-77
2023/02/10 09:32:40;;;;;;;7.17;4.50;;;16.30;48.90;;;;;;4983889;28;20474;-78
2023/02/10 09:35:08;;;;;;;9.13;4.70;;;16.50;49.50;;;;;;4992038;28;20449;-77
2023/02/10 09:37:36;;;;;;;6.50;4.87;;;16.80;49.60;;;;;;4989103;28;20453;-77
2023/02/10 09:40:06;;;;;;;9.70;4.83;;;17.00;49.30;;;;;;4989804;28;20584;-77
2023/02/10 09:42:42;;;;;;;8.10;5.13;;;17.10;49.10;;;;;;4983912;28;20487;-76
2023/02/10 09:45:12;;;;;;;9.47;5.70;;;17.30;49.00;;;;;;4987250;28;20445;-75
2023/02/10 09:47:44;;;;;;;16.03;5.50;;;17.40;49.00;;;;;;4981831;28;20833;-76
2023/02/10 09:50:40;;;;;;;9.80;5.40;;;17.50;49.00;;;;;;4979897;28;20540;-76
2023/02/10 09:53:11;;;;;;;8.10;5.53;;;17.60;48.90;;;;;;4977797;28;20457;-77
2023/02/10 09:55:42;;;;;;;8.70;5.53;;;17.80;48.80;;;;;;4985800;28;20488;-76
2023/02/10 09:58:15;;;;;;;9.73;5.00;;;17.90;48.80;;;;;;4985378;28;20453;-77
2023/02/10 10:00:44;;;;;;;30.70;15.30;;;18.10;49.00;;;;;;4993976;28;20453;-78
2023/02/10 10:03:14;;;;;;;29.57;14.20;;;15.40;44.50;;;;;;4995607;28;20504;-79
2023/02/10 10:05:46;;;;;;;35.17;15.03;;;12.90;48.60;;;;;;4988365;28;20472;-85
2023/02/10 10:08:20;;;;;;;29.20;14.80;;;11.90;51.90;;;;;;4990315;28;20472;-78
2023/02/10 10:10:50;;;;;;;35.33;14.43;;;11.50;52.90;;;;;;4993271;28;20477;-81
2023/02/10 10:13:21;;;;;;;28.80;14.80;;;11.00;53.50;;;;;;4987374;28;20554;-84
2023/02/10 10:15:58;;;;;;;30.70;16.20;;;10.50;53.80;;;;;;4983917;28;20496;-84
2023/02/10 10:18:29;;;;;;;29.07;14.03;;;10.50;55.20;;;;;;4992362;28;20457;-79
2023/02/10 10:20:58;;;;;;;26.87;13.03;;;11.40;61.40;;;;;;4992910;28;20459;-80
2023/02/10 10:23:43;;;;;;;30.00;12.00;;;13.00;58.00;;;;;;4984703;28;20488;-79
2023/02/10 10:26:35;;;;;;;23.03;12.47;;;14.40;54.50;;;;;;4980823;28;20476;-75
2023/02/10 10:29:13;;;;;;;26.83;10.97;;;15.30;51.20;;;;;;4987065;28;20445;-75
2023/02/10 10:31:42;;;;;;;21.57;10.80;;;15.90;49.40;;;;;;4988910;28;21048;-75
2023/02/10 10:34:13;;;;;;;19.40;9.60;;;16.40;48.30;;;;;;4985639;28;20545;-75
2023/02/10 10:36:44;;;;;;;23.90;11.20;;;16.80;47.50;;;;;;4985215;28;20463;-75
2023/02/10 10:39:15;;;;;;;19.00;9.20;;;17.00;46.90;;;;;;4988810;28;20471;-77
2023/02/10 10:41:46;;;;;;;17.77;9.03;;;17.20;46.60;;;;;;4990971;28;20503;-76
2023/02/10 10:44:16;;;;;;;16.60;8.50;;;17.50;46.30;;;;;;4994846;28;20480;-76
2023/02/10 10:46:46;;;;;;;18.20;8.67;;;17.80;46.20;;;;;;4988166;28;20465;-76
2023/02/10 10:49:14;;;;;;;14.50;7.67;;;18.10;46.00;;;;;;4987994;28;20492;-75
2023/02/10 10:51:42;;;;;;;14.20;8.10;;;18.40;45.80;;;;;;4988650;28;20515;-76
2023/02/10 10:54:15;;;;;;;12.20;6.80;;;18.80;45.60;;;;;;4988103;28;20536;-75
2023/02/10 10:56:47;;;;;;;14.00;6.80;;;19.10;45.40;;;;;;4986293;28;20496;-75
2023/02/10 10:59:16;;;;;;;11.23;6.67;;;19.30;45.20;;;;;;4986915;28;20454;-75
2023/02/10 11:01:46;;;;;;;15.27;6.90;;;19.60;45.00;;;;;;4990237;28;20477;-75
2023/02/10 11:04:15;;;;;;;12.90;6.10;;;19.70;44.90;;;;;;4990737;28;20477;-75
2023/02/10 11:06:44;;;;;;;12.67;5.90;;;20.10;44.90;;;;;;4990586;28;20475;-74
2023/02/10 11:09:20;;;;;;;10.03;5.53;;;20.40;44.80;;;;;;4984337;28;20452;-74
2023/02/10 11:11:49;;;;;;;10.00;5.10;;;20.70;44.40;;;;;;4989067;28;20469;-75
2023/02/10 11:14:18;;;;;;;9.83;5.40;;;20.80;44.00;;;;;;4989673;28;20453;-77
2023/02/10 11:16:48;;;;;;;11.27;4.87;;;20.90;44.00;;;;;;4988957;28;20455;-76
2023/02/10 11:19:20;;;;;;;9.80;5.10;;;21.00;44.00;;;;;;4989010;28;20503;-77
2023/02/10 11:21:48;;;;;;;11.73;4.90;;;21.20;44.20;;;;;;4986928;28;20436;-75
2023/02/10 11:24:22;;;;;;;9.53;5.17;;;21.30;44.10;;;;;;4985861;28;20474;-76
2023/02/10 11:26:59;;;;;;;12.20;4.97;;;21.50;44.20;;;;;;4987413;28;20481;-76
2023/02/10 11:29:27;;;;;;;8.13;4.17;;;21.80;44.10;;;;;;4990478;28;20457;-77
2023/02/10 11:31:55;;;;;;;7.77;4.67;;;22.00;44.00;;;;;;4987278;28;20476;-77
2023/02/10 11:34:26;;;;;;;7.93;4.27;;;22.30;43.90;;;;;;4991270;28;20431;-79
2023/02/10 11:36:54;;;;;;;10.70;4.90;;;22.60;45.20;;;;;;4982897;28;20940;-77
2023/02/10 11:39:24;;;;;;;11.07;3.73;;;23.10;44.60;;;;;;4988291;28;20464;-77
2023/02/10 11:41:52;;;;;;;7.17;3.70;;;23.50;43.80;;;;;;4987968;28;20459;-76
2023/02/10 11:44:29;;;;;;;11.00;3.90;;;23.70;43.30;;;;;;4992618;28;20461;-76
2023/02/10 11:46:58;;;;;;;5.57;3.73;;;23.90;42.90;;;;;;4989013;28;20577;-75
2023/02/10 11:49:30;;;;;;;11.13;4.13;;;24.10;42.60;;;;;;4984617;28;20449;-75
2023/02/10 11:51:59;;;;;;;10.93;4.60;;;24.20;42.30;;;;;;4989023;28;20494;-76
2023/02/10 11:54:27;;;;;;;16.93;4.13;;;24.30;42.10;;;;;;4986668;28;20502;-75
2023/02/10 12:00:04;;;;;;;8.67;4.47;;;24.40;41.60;;;;;;4985204;28;20438;-76
2023/02/10 12:02:40;;;;;;;21.47;4.50;;;24.60;41.50;;;;;;4988821;28;20538;-75
2023/02/10 12:05:16;;;;;;;6.47;4.87;;;24.70;41.20;;;;;;4989890;28;20466;-75
2023/02/10 12:07:52;;;;;;;13.13;5.07;;;24.70;40.90;;;;;;4988003;28;20430;-77
2023/02/10 12:10:27;;;;;;;8.57;4.40;;;24.80;41.00;;;;;;4984270;28;20511;-76
2023/02/10 12:12:58;;;;;;;8.83;4.90;;;24.80;40.80;;;;;;4988240;28;20559;-77
2023/02/10 12:15:35;;;;;;;9.77;4.90;;;24.80;40.60;;;;;;4986801;28;20449;-78
2023/02/10 12:18:11;;;;;;;5.80;4.40;;;24.80;40.60;;;;;;4989763;28;20503;-74
2023/02/10 12:20:44;;;;;;;4.73;4.10;;;24.80;40.50;;;;;;4987916;28;20437;-77
2023/02/10 12:23:26;;;;;;;8.30;4.40;;;24.90;40.60;;;;;;4989642;28;20455;-75
2023/02/10 12:25:57;;;;;;;8.53;4.30;;;25.00;40.70;;;;;;4983859;28;20477;-77
2023/02/10 12:28:32;;;;;;;7.20;4.60;;;25.00;41.30;;;;;;4986907;28;20455;-79
2023/02/10 12:31:18;;;;;;;7.10;4.30;;;25.10;40.60;;;;;;4989485;28;20462;-76
2023/02/10 12:34:00;;;;;;;5.40;4.13;;;25.20;40.30;;;;;;4989799;28;20515;-78
2023/02/10 12:36:30;;;;;;;5.90;4.27;;;25.30;40.30;;;;;;4989069;28;20480;-77
2023/02/10 12:39:03;;;;;;;6.67;4.50;;;25.40;40.20;;;;;;4989808;28;20436;-76
2023/02/10 12:41:36;;;;;;;8.83;4.00;;;25.50;40.00;;;;;;4985696;28;20447;-75
2023/02/10 12:44:22;;;;;;;9.80;4.70;;;25.60;39.90;;;;;;4987950;28;20460;-76
2023/02/10 12:46:57;;;;;;;7.03;4.07;;;25.70;39.80;;;;;;4989589;28;20461;-80
2023/02/10 12:49:32;;;;;;;5.93;4.50;;;25.80;39.70;;;;;;4984806;28;20423;-77
2023/02/10 12:52:03;;;;;;;7.60;4.33;;;25.80;39.60;;;;;;4981112;28;20453;-76